Time;durP1;ratioP1;P1;durP2;ratioP2;P2;SDS_P1;SDS_P2;PMS_P1;PMS_P2;Temp;Humidity;BMP_temperature;BMP_pressure;BME280_temperature;BME280_humidity;BME280_pressure;Samples;Min_cycle;Max_cycle;Signal;HPM_P1;HPM_P2
2022/08/24 00:01:01;;;;;;;2.50;1.98;;;20.00;99.90;;;;;;6303006;22;20000;-87
2022/08/24 00:03:27;;;;;;;5.38;1.88;;;19.90;99.90;;;;;;6275419;22;20007;-87
2022/08/24 00:05:52;;;;;;;2.30;2.03;;;20.00;99.90;;;;;;6303171;22;20003;-87
2022/08/24 00:08:18;;;;;;;4.50;2.10;;;19.90;99.90;;;;;;6275660;22;20006;-88
2022/08/24 00:10:45;;;;;;;2.20;1.95;;;21.10;99.90;;;;;;6303704;22;20340;-88
2022/08/24 00:13:12;;;;;;;2.67;2.03;;;19.90;99.90;;;;;;6275405;22;20017;-87
2022/08/24 00:15:37;;;;;;;5.45;2.17;;;19.90;99.90;;;;;;6275412;22;20206;-88
2022/08/24 00:18:03;;;;;;;2.50;2.05;;;19.70;99.90;;;;;;6302637;22;20057;-89
2022/08/24 00:20:29;;;;;;;2.70;1.90;;;19.80;99.90;;;;;;6302713;22;20003;-89
2022/08/24 00:22:55;;;;;;;3.35;2.10;;;19.80;99.90;;;;;;6275669;22;20003;-88
2022/08/24 00:25:21;;;;;;;4.15;1.90;;;19.70;99.90;;;;;;6303229;22;20372;-90
2022/08/24 00:27:47;;;;;;;3.90;2.58;;;19.80;99.90;;;;;;6303912;22;20000;-89
2022/08/24 00:30:16;;;;;;;2.20;1.95;;;20.30;99.90;;;;;;6275051;22;20086;-89
2022/08/24 00:32:44;;;;;;;1.92;1.77;;;19.70;99.90;;;;;;6275296;22;20022;-88
2022/08/24 00:35:11;;;;;;;6.43;2.00;;;19.70;99.90;;;;;;6302648;22;20013;-88
2022/08/24 00:37:38;;;;;;;7.28;2.83;;;20.70;99.90;;;;;;6302415;22;19999;-93
2022/08/24 00:40:13;;;;;;;2.60;2.30;;;19.80;99.90;;;;;;6275621;22;19999;-87
2022/08/24 00:42:40;;;;;;;4.03;2.20;;;19.70;99.90;;;;;;6302575;22;20233;-89
2022/08/24 00:45:09;;;;;;;2.50;2.17;;;19.90;99.90;;;;;;6302692;22;19999;-88
2022/08/24 00:47:49;;;;;;;2.97;2.20;;;19.80;99.90;;;;;;6275482;22;20036;-88
2022/08/24 00:50:24;;;;;;;5.40;2.30;;;19.60;99.90;;;;;;6303458;22;20009;-90
2022/08/24 00:52:55;;;;;;;4.57;2.30;;;19.60;99.90;;;;;;6303818;22;20039;-88
2022/08/24 00:55:31;;;;;;;6.20;2.53;;;19.60;99.90;;;;;;6275016;22;20391;-88
2022/08/24 00:58:01;;;;;;;3.75;2.10;;;19.80;99.90;;;;;;6302693;22;20022;-93
2022/08/24 01:00:31;;;;;;;4.03;2.20;;;19.60;99.90;;;;;;6275553;22;20007;-90
2022/08/24 01:03:03;;;;;;;3.35;2.20;;;19.50;99.90;;;;;;6275072;22;20006;-89
2022/08/24 01:05:30;;;;;;;2.17;2.00;;;19.50;99.90;;;;;;6303325;22;20003;-92
2022/08/24 01:07:56;;;;;;;4.50;2.28;;;19.50;99.90;;;;;;6303421;22;20004;-91
2022/08/24 01:10:25;;;;;;;2.33;1.98;;;19.50;99.90;;;;;;6303216;22;19999;-91
2022/08/24 01:13:00;;;;;;;4.95;2.28;;;19.50;99.90;;;;;;6303289;22;20007;-89
2022/08/24 01:15:30;;;;;;;3.85;2.05;;;19.40;99.90;;;;;;6275713;22;20043;-92
2022/08/24 01:20:45;;;;;;;4.80;2.40;;;19.40;99.90;;;;;;6302672;22;20007;-88
2022/08/24 01:23:13;;;;;;;2.22;2.03;;;19.30;99.90;;;;;;6302890;22;19999;-89
2022/08/24 01:25:42;;;;;;;3.55;2.20;;;19.40;99.90;;;;;;6275921;22;20097;-92
2022/08/24 01:28:13;;;;;;;6.22;2.40;;;19.20;99.90;;;;;;6302837;22;20003;-91
2022/08/24 01:30:41;;;;;;;3.08;2.70;;;19.30;99.90;;;;;;6303525;22;20011;-94
2022/08/24 01:33:09;;;;;;;4.80;2.88;;;19.20;99.90;;;;;;6304233;22;20800;-92
2022/08/24 01:35:37;;;;;;;3.83;2.45;;;19.30;99.90;;;;;;6304556;22;20027;-92
2022/08/24 01:38:04;;;;;;;;;;;19.30;99.90;;;;;;6277847;22;20029;-88
2022/08/24 01:40:37;;;;;;;10.00;3.00;;;19.20;99.90;;;;;;6304723;22;20044;-88
2022/08/24 01:43:05;;;;;;;4.13;2.97;;;19.20;99.90;;;;;;6277580;22;20010;-94
2022/08/24 01:45:30;;;;;;;4.53;3.30;;;19.20;99.90;;;;;;6305170;22;20075;-91
2022/08/24 01:47:58;;;;;;;6.90;2.80;;;19.20;99.90;;;;;;6305233;22;20379;-93
2022/08/24 01:50:24;;;;;;;3.00;2.70;;;19.20;99.90;;;;;;6304713;22;20090;-87
2022/08/24 01:52:51;;;;;;;6.13;3.13;;;19.20;99.90;;;;;;6305582;22;20237;-89
2022/08/24 01:55:17;;;;;;;3.50;2.70;;;19.10;99.90;;;;;;6304384;22;19999;-87
2022/08/24 01:57:43;;;;;;;4.13;2.83;;;19.10;99.90;;;;;;6306075;22;20067;-87
2022/08/24 02:00:15;;;;;;;5.00;2.83;;;19.10;99.90;;;;;;6304643;22;19995;-89
2022/08/24 02:02:43;;;;;;;5.47;2.60;;;19.30;99.90;;;;;;6304632;22;20003;-90
2022/08/24 02:05:11;;;;;;;6.30;3.30;;;19.00;99.90;;;;;;6304892;22;20030;-91
2022/08/24 02:07:36;;;;;;;3.97;3.00;;;19.00;99.90;;;;;;6304750;22;20068;-93
2022/08/24 02:10:05;;;;;;;6.88;3.25;;;19.00;99.90;;;;;;6277065;22;20335;-92
2022/08/24 02:12:32;;;;;;;8.10;2.97;;;19.00;99.90;;;;;;6304514;22;20037;-93
2022/08/24 02:14:59;;;;;;;5.38;3.10;;;19.00;99.90;;;;;;6304325;22;20006;-87
2022/08/24 02:17:25;;;;;;;4.18;2.70;;;19.00;99.90;;;;;;6304067;22;20006;-88
2022/08/24 02:19:51;;;;;;;3.05;2.75;;;19.10;99.90;;;;;;6304573;22;19999;-89
2022/08/24 02:22:16;;;;;;;5.63;2.60;;;19.00;99.90;;;;;;6304101;22;20057;-89
2022/08/24 02:24:42;;;;;;;3.72;2.60;;;19.00;99.90;;;;;;6310367;22;20041;-87
2022/08/24 02:27:08;;;;;;;3.85;2.60;;;19.00;99.90;;;;;;6311410;22;20136;-88
2022/08/24 02:29:34;;;;;;;3.13;2.55;;;18.90;99.90;;;;;;6304205;22;20007;-90
2022/08/24 02:32:00;;;;;;;3.53;2.50;;;18.90;99.90;;;;;;6304366;22;20011;-91
2022/08/24 02:34:25;;;;;;;4.53;2.63;;;18.90;99.90;;;;;;6277359;22;20044;-88
2022/08/24 02:36:52;;;;;;;2.88;2.30;;;18.90;99.90;;;;;;6305455;22;20059;-92
2022/08/24 02:39:18;;;;;;;5.38;2.60;;;18.90;99.90;;;;;;6304434;22;20003;-88
2022/08/24 02:41:44;;;;;;;5.78;2.50;;;18.80;99.90;;;;;;6303493;22;19999;-87
2022/08/24 02:44:10;;;;;;;4.85;2.33;;;18.80;99.90;;;;;;6304713;22;20011;-91
2022/08/24 02:46:36;;;;;;;4.40;2.17;;;18.70;99.90;;;;;;6303911;22;20025;-92
2022/08/24 02:49:03;;;;;;;4.57;2.55;;;18.70;99.90;;;;;;6277070;22;20012;-90
2022/08/24 02:51:31;;;;;;;6.07;2.50;;;18.70;99.90;;;;;;6304203;22;20011;-90
2022/08/24 02:53:58;;;;;;;3.28;2.10;;;18.70;99.90;;;;;;6305317;22;20063;-89
2022/08/24 02:56:24;;;;;;;6.72;2.30;;;18.80;99.90;;;;;;6305125;22;19999;-92
2022/08/24 02:59:00;;;;;;;4.15;2.28;;;18.80;99.90;;;;;;6304540;22;20003;-91
2022/08/24 03:01:27;;;;;;;4.30;2.10;;;19.00;99.90;;;;;;6305254;22;20003;-88
2022/08/24 03:03:53;;;;;;;3.03;2.17;;;18.80;99.90;;;;;;6278187;22;20003;-92
2022/08/24 03:06:19;;;;;;;4.93;2.13;;;20.00;99.90;;;;;;6277527;22;20007;-89
2022/08/24 03:08:45;;;;;;;5.60;2.13;;;18.60;99.90;;;;;;6304485;22;20087;-91
2022/08/24 03:11:12;;;;;;;5.97;2.10;;;18.70;99.90;;;;;;6304173;22;20339;-89
2022/08/24 03:13:38;;;;;;;4.40;2.00;;;18.70;99.90;;;;;;6304912;22;19999;-87
2022/08/24 03:16:05;;;;;;;5.93;2.53;;;18.60;99.90;;;;;;6304684;22;19999;-91
2022/08/24 03:18:32;;;;;;;3.58;2.38;;;18.60;99.90;;;;;;6278320;22;20025;-87
2022/08/24 03:21:00;;;;;;;6.30;2.45;;;19.30;99.90;;;;;;6308298;22;20074;-87
2022/08/24 03:23:26;;;;;;;4.03;2.00;;;18.50;99.90;;;;;;6306505;22;20027;-92
2022/08/24 03:25:54;;;;;;;3.97;2.42;;;18.50;99.90;;;;;;6304350;22;20007;-90
2022/08/24 03:28:22;;;;;;;3.83;2.28;;;18.50;99.90;;;;;;6303394;22;20003;-89
2022/08/24 03:30:48;;;;;;;4.22;2.50;;;18.50;99.90;;;;;;6277287;22;20477;-94
2022/08/24 03:33:14;;;;;;;5.97;1.98;;;18.40;99.90;;;;;;6304143;22;20007;-92
2022/08/24 03:35:40;;;;;;;3.10;2.00;;;18.40;99.90;;;;;;6303973;22;20003;-92
2022/08/24 03:38:06;;;;;;;3.50;1.80;;;18.40;99.90;;;;;;6303868;22;20038;-91
2022/08/24 03:40:32;;;;;;;4.53;1.70;;;18.30;99.90;;;;;;6304026;22;20049;-93
2022/08/24 03:43:00;;;;;;;1.88;1.48;;;18.40;99.90;;;;;;6305596;22;19999;-91
2022/08/24 03:45:26;;;;;;;3.35;1.75;;;18.30;99.90;;;;;;6305078;22;20004;-93
2022/08/24 03:47:52;;;;;;;3.03;1.90;;;18.40;99.90;;;;;;6304091;22;20331;-93
2022/08/24 03:50:19;;;;;;;2.63;1.80;;;18.30;99.90;;;;;;6278240;22;20011;-88
2022/08/24 03:52:45;;;;;;;1.73;1.63;;;18.30;99.90;;;;;;6303630;22;20005;-90
2022/08/24 03:55:12;;;;;;;1.73;1.63;;;18.20;99.90;;;;;;6303692;22;19995;-90
2022/08/24 03:57:38;;;;;;;3.70;2.20;;;18.10;99.90;;;;;;6276453;22;20015;-91
2022/08/24 04:00:06;;;;;;;6.40;2.25;;;18.20;99.90;;;;;;6303220;22;20353;-89
2022/08/24 04:02:32;;;;;;;4.28;2.13;;;18.40;99.90;;;;;;6303625;22;19999;-91
2022/08/24 04:04:58;;;;;;;2.78;1.85;;;18.20;99.90;;;;;;6276454;22;19999;-93
2022/08/24 04:07:24;;;;;;;2.13;1.90;;;18.20;99.90;;;;;;6302590;22;20437;-89
2022/08/24 04:09:49;;;;;;;5.47;1.83;;;18.10;99.90;;;;;;6302945;22;20323;-92
2022/08/24 04:12:15;;;;;;;3.35;2.38;;;18.20;99.90;;;;;;6303024;22;20007;-92
2022/08/24 04:14:41;;;;;;;3.67;1.98;;;18.20;99.90;;;;;;6303480;22;19999;-88
2022/08/24 04:17:07;;;;;;;6.63;2.22;;;18.20;99.90;;;;;;6275628;22;20010;-92
2022/08/24 04:19:33;;;;;;;4.68;2.08;;;18.20;99.90;;;;;;6303335;22;20428;-90
2022/08/24 04:21:59;;;;;;;2.83;2.03;;;18.20;99.90;;;;;;6304316;22;19999;-92
2022/08/24 04:24:27;;;;;;;1.92;1.80;;;18.10;99.90;;;;;;6303191;22;20022;-93
2022/08/24 04:26:53;;;;;;;;;;;18.10;99.90;;;;;;6303588;22;20006;-85
2022/08/24 04:29:20;;;;;;;6.03;2.20;;;18.10;99.90;;;;;;6296922;22;19899;-93
2022/08/24 04:31:46;;;;;;;3.30;2.60;;;18.10;99.90;;;;;;6301469;22;20465;-91
2022/08/24 04:34:13;;;;;;;4.10;2.40;;;18.00;99.90;;;;;;6274570;22;20004;-94
2022/08/24 04:36:41;;;;;;;3.55;2.53;;;18.00;99.90;;;;;;6302687;22;20037;-94
2022/08/24 04:39:07;;;;;;;3.72;3.00;;;17.90;99.90;;;;;;6303101;22;20490;-91
2022/08/24 04:41:32;;;;;;;3.00;2.70;;;17.90;99.90;;;;;;6302910;22;19999;-85
2022/08/24 04:43:58;;;;;;;2.80;2.50;;;17.90;99.90;;;;;;6303741;22;20019;-87
2022/08/24 04:46:25;;;;;;;15.63;3.33;;;17.90;99.90;;;;;;6302501;22;20030;-93
2022/08/24 04:48:51;;;;;;;14.90;3.13;;;17.90;99.90;;;;;;6306299;22;20000;-95
2022/08/24 04:51:18;;;;;;;9.88;3.28;;;17.90;99.90;;;;;;6302829;22;20018;-84
2022/08/24 04:53:44;;;;;;;5.03;3.10;;;17.80;99.90;;;;;;6302582;22;20030;-92
2022/08/24 04:56:21;;;;;;;3.50;2.70;;;17.80;99.90;;;;;;6302432;22;20532;-92
2022/08/24 04:58:49;;;;;;;3.05;2.72;;;17.80;99.90;;;;;;6303010;22;20003;-93
2022/08/24 05:01:20;;;;;;;4.93;2.70;;;17.80;99.90;;;;;;6302815;22;20061;-87
2022/08/24 05:03:49;;;;;;;4.78;2.30;;;17.80;99.90;;;;;;6277634;22;20003;-87
2022/08/24 05:06:17;;;;;;;4.82;2.08;;;17.70;99.90;;;;;;6274906;22;20003;-89
2022/08/24 05:08:43;;;;;;;2.05;1.95;;;17.70;99.90;;;;;;6274701;22;19999;-84
2022/08/24 05:11:08;;;;;;;1.90;1.80;;;17.70;99.90;;;;;;6305651;22;20018;-87
2022/08/24 05:13:36;;;;;;;1.77;1.67;;;17.70;99.90;;;;;;6312096;22;20026;-87
2022/08/24 05:16:06;;;;;;;1.87;1.77;;;17.60;99.90;;;;;;6286216;22;20011;-86
2022/08/24 05:18:33;;;;;;;3.70;1.88;;;17.60;99.90;;;;;;6305149;22;20230;-92
2022/08/24 05:20:59;;;;;;;2.63;1.27;;;17.60;99.90;;;;;;6279997;22;19999;-91
2022/08/24 05:23:25;;;;;;;1.30;1.20;;;17.60;99.90;;;;;;6309844;22;20010;-86
2022/08/24 05:25:51;;;;;;;3.90;1.50;;;17.60;99.90;;;;;;6302655;22;19995;-85
2022/08/24 05:28:18;;;;;;;2.55;1.55;;;17.60;99.90;;;;;;6302175;22;20009;-86
2022/08/24 05:30:43;;;;;;;1.50;1.40;;;17.60;99.90;;;;;;6275548;22;20389;-92
2022/08/24 05:33:10;;;;;;;1.75;1.40;;;17.60;99.90;;;;;;6302845;22;20480;-91
2022/08/24 05:35:39;;;;;;;2.92;1.40;;;17.60;99.90;;;;;;6302031;22;20055;-93
2022/08/24 05:38:05;;;;;;;3.92;1.50;;;17.60;99.90;;;;;;6301722;22;20011;-86
2022/08/24 05:40:31;;;;;;;1.35;1.25;;;17.60;99.90;;;;;;6303639;22;20003;-93
2022/08/24 05:42:56;;;;;;;1.30;1.20;;;17.60;99.90;;;;;;6302870;22;20384;-90
2022/08/24 05:45:22;;;;;;;1.42;1.33;;;17.60;99.90;;;;;;6303447;22;20057;-84
2022/08/24 05:47:48;;;;;;;2.08;1.30;;;17.70;99.90;;;;;;6302370;22;20075;-92
2022/08/24 05:50:13;;;;;;;1.90;1.80;;;17.70;99.90;;;;;;6302721;22;20003;-92
2022/08/24 05:52:39;;;;;;;2.83;1.70;;;17.70;99.90;;;;;;6303011;22;20014;-90
2022/08/24 05:55:05;;;;;;;1.75;1.60;;;17.80;99.90;;;;;;6275854;22;20010;-84
2022/08/24 05:57:33;;;;;;;3.72;2.20;;;17.90;99.90;;;;;;6276471;22;20011;-85
2022/08/24 05:59:59;;;;;;;;;;;17.90;99.90;;;;;;6304547;22;20432;-84
2022/08/24 06:02:25;;;;;;;3.08;2.25;;;18.00;99.90;;;;;;6302995;22;19903;-92
2022/08/24 06:04:51;;;;;;;11.00;3.05;;;18.10;99.90;;;;;;6302811;22;20003;-87
2022/08/24 06:07:17;;;;;;;7.53;2.97;;;18.20;99.90;;;;;;6302925;22;20031;-89
2022/08/24 06:09:43;;;;;;;4.50;2.88;;;18.20;99.90;;;;;;6302759;22;20447;-93
2022/08/24 06:12:10;;;;;;;9.43;3.20;;;18.30;99.90;;;;;;6302824;22;20008;-93
2022/08/24 06:14:37;;;;;;;3.17;2.88;;;18.30;99.90;;;;;;6276302;22;20006;-90
2022/08/24 06:17:06;;;;;;;3.22;2.92;;;18.30;99.90;;;;;;6304099;22;20008;-93
2022/08/24 06:19:32;;;;;;;4.35;3.28;;;18.50;99.90;;;;;;6303934;22;19999;-87
2022/08/24 06:21:58;;;;;;;3.85;3.10;;;18.40;99.90;;;;;;6303808;22;20048;-95
2022/08/24 06:27:22;;;;;;;3.50;3.20;;;18.40;99.90;;;;;;6304771;22;20013;-93
2022/08/24 06:29:56;;;;;;;3.70;3.40;;;18.30;99.90;;;;;;6304863;22;20331;-95
2022/08/24 06:32:24;;;;;;;3.70;3.40;;;18.30;99.90;;;;;;6304283;22;20007;-85
2022/08/24 06:34:50;;;;;;;4.43;3.53;;;18.30;99.90;;;;;;6304287;22;20003;-94
2022/08/24 06:37:16;;;;;;;5.13;3.45;;;18.30;99.90;;;;;;6304646;22;20508;-92
2022/08/24 06:39:41;;;;;;;4.10;3.35;;;18.30;99.90;;;;;;6277125;22;20008;-84
2022/08/24 06:42:07;;;;;;;4.90;3.55;;;18.40;99.90;;;;;;6304434;22;20034;-85
2022/08/24 06:44:33;;;;;;;5.22;3.33;;;18.50;99.90;;;;;;6305652;22;20133;-84
2022/08/24 06:46:59;;;;;;;5.57;3.40;;;18.60;99.90;;;;;;6304495;22;20400;-94
2022/08/24 06:49:25;;;;;;;5.25;3.20;;;18.70;99.90;;;;;;6304521;22;20090;-93
2022/08/24 06:51:50;;;;;;;8.48;3.60;;;18.80;99.90;;;;;;6304370;22;20015;-86
2022/08/24 06:54:19;;;;;;;3.83;3.08;;;18.90;99.90;;;;;;6304730;22;20493;-93
2022/08/24 06:56:45;;;;;;;5.05;3.63;;;19.00;99.90;;;;;;6276810;22;20003;-91
2022/08/24 06:59:11;;;;;;;5.55;3.55;;;19.10;99.90;;;;;;6304443;22;20000;-87
2022/08/24 07:01:37;;;;;;;5.47;3.80;;;19.10;99.90;;;;;;6305343;22;20082;-92
2022/08/24 07:04:03;;;;;;;6.65;3.40;;;19.20;99.90;;;;;;6305217;22;20066;-84
2022/08/24 07:06:29;;;;;;;6.40;4.00;;;19.20;99.90;;;;;;6304344;22;19999;-93
2022/08/24 07:08:55;;;;;;;6.22;3.78;;;19.40;99.90;;;;;;6304350;22;20002;-93
2022/08/24 07:11:21;;;;;;;5.75;3.70;;;19.50;99.90;;;;;;6277189;22;20014;-93
2022/08/24 07:13:48;;;;;;;4.38;3.70;;;19.60;99.90;;;;;;6304061;22;19999;-94
2022/08/24 07:16:16;;;;;;;6.93;4.15;;;19.70;99.90;;;;;;6304031;22;19999;-93
2022/08/24 07:18:42;;;;;;;;;;;19.70;99.90;;;;;;6276945;22;20003;-84
2022/08/24 07:21:08;;;;;;;7.65;5.10;;;19.80;99.90;;;;;;6305377;22;19903;-91
2022/08/24 07:23:34;;;;;;;5.35;4.70;;;20.10;99.90;;;;;;6278652;22;20003;-84
2022/08/24 07:26:08;;;;;;;7.22;4.88;;;20.00;99.90;;;;;;6303972;22;20046;-93
2022/08/24 07:28:36;;;;;;;6.35;5.07;;;20.10;99.90;;;;;;6305090;22;20343;-94
2022/08/24 07:31:02;;;;;;;7.95;4.55;;;20.20;99.90;;;;;;6303949;22;20011;-91
2022/08/24 07:33:29;;;;;;;6.03;5.13;;;20.30;99.90;;;;;;6276649;22;20060;-90
2022/08/24 07:35:54;;;;;;;9.68;5.03;;;20.40;99.90;;;;;;6303975;22;19999;-93
2022/08/24 07:38:20;;;;;;;10.32;4.97;;;20.50;99.90;;;;;;6304592;22;20010;-94
2022/08/24 07:40:46;;;;;;;11.00;5.60;;;20.60;99.90;;;;;;6304212;22;19999;-93
2022/08/24 07:43:12;;;;;;;5.65;5.03;;;20.70;99.90;;;;;;6303678;22;20006;-90
2022/08/24 07:45:40;;;;;;;6.82;6.03;;;20.80;99.90;;;;;;6278048;22;20003;-94
2022/08/24 07:48:06;;;;;;;5.00;4.45;;;20.50;99.90;;;;;;6309137;22;19999;-94
2022/08/24 07:50:32;;;;;;;5.78;4.32;;;21.00;99.90;;;;;;6307108;22;20030;-85
2022/08/24 07:52:58;;;;;;;6.95;5.35;;;21.00;99.90;;;;;;6307189;22;19988;-84
2022/08/24 07:55:24;;;;;;;5.97;5.38;;;21.10;99.90;;;;;;6286427;22;20391;-85
2022/08/24 07:57:50;;;;;;;6.28;4.43;;;21.10;99.90;;;;;;6284280;22;20098;-93
2022/08/24 08:00:18;;;;;;;8.35;4.55;;;21.10;99.90;;;;;;6307790;22;19995;-92
2022/08/24 08:02:46;;;;;;;6.13;4.57;;;21.20;99.90;;;;;;6306195;22;20448;-84
2022/08/24 08:05:18;;;;;;;7.78;4.88;;;21.30;99.90;;;;;;6303681;22;20004;-84
2022/08/24 08:07:43;;;;;;;6.22;5.03;;;21.40;99.90;;;;;;6303342;22;19999;-84
2022/08/24 08:10:10;;;;;;;9.35;4.32;;;21.40;99.90;;;;;;6277137;22;20026;-84
2022/08/24 08:12:35;;;;;;;9.30;4.38;;;21.40;99.90;;;;;;6303235;22;20007;-93
2022/08/24 08:15:02;;;;;;;9.75;4.88;;;21.50;99.90;;;;;;6305803;22;20197;-86
2022/08/24 08:17:28;;;;;;;7.28;4.60;;;21.60;99.90;;;;;;6310048;22;20089;-94
2022/08/24 08:19:54;;;;;;;6.82;4.47;;;21.70;99.90;;;;;;6309322;22;19999;-94
2022/08/24 08:25:06;;;;;;;5.05;4.15;;;21.80;99.90;;;;;;6307784;22;20041;-85
2022/08/24 08:27:33;;;;;;;5.97;3.55;;;21.90;99.90;;;;;;6280227;22;20238;-94
2022/08/24 08:29:59;;;;;;;5.72;3.70;;;21.90;99.90;;;;;;6310862;22;20007;-86
2022/08/24 08:32:25;;;;;;;8.57;3.90;;;22.00;99.90;;;;;;6308400;22;20045;-94
2022/08/24 08:34:51;;;;;;;7.63;4.22;;;22.10;99.90;;;;;;6306052;22;20003;-93
2022/08/24 08:37:17;;;;;;;6.00;4.40;;;22.20;99.90;;;;;;6307872;22;20033;-84
2022/08/24 08:39:43;;;;;;;7.03;4.68;;;22.30;99.90;;;;;;6308455;22;19999;-85
2022/08/24 08:42:41;;;;;;;7.88;4.80;;;22.50;99.90;;;;;;6309817;22;20446;-94
2022/08/24 08:45:25;;;;;;;8.07;4.20;;;22.40;99.90;;;;;;6280805;22;20004;-95
2022/08/24 08:47:56;;;;;;;5.03;4.00;;;22.50;99.90;;;;;;6307161;22;19999;-94
2022/08/24 08:50:40;;;;;;;6.70;3.78;;;22.60;99.90;;;;;;6306064;22;20013;-85
2022/08/24 08:53:15;;;;;;;6.43;3.55;;;22.50;99.90;;;;;;6281728;22;20064;-84
2022/08/24 08:55:47;;;;;;;11.63;4.15;;;22.60;99.90;;;;;;6309435;22;19999;-85
2022/08/24 08:58:31;;;;;;;8.02;4.05;;;22.80;99.90;;;;;;6312400;22;20026;-84
2022/08/24 09:01:29;;;;;;;9.55;4.60;;;22.90;99.90;;;;;;6311313;22;19999;-88
2022/08/24 09:04:07;;;;;;;5.15;3.97;;;22.90;99.90;;;;;;6262313;22;20010;-84
2022/08/24 09:06:33;;;;;;;5.10;4.15;;;23.00;99.90;;;;;;6282469;22;20462;-84
2022/08/24 09:09:18;;;;;;;8.03;3.83;;;23.20;99.90;;;;;;6314031;22;20006;-94
2022/08/24 09:12:24;;;;;;;4.47;4.07;;;23.20;99.90;;;;;;6285408;22;20011;-86
2022/08/24 09:14:58;;;;;;;6.00;3.50;;;23.20;99.90;;;;;;6314211;22;19995;-95
2022/08/24 09:17:56;;;;;;;7.03;3.75;;;23.20;99.90;;;;;;6293007;22;20447;-92
2022/08/24 09:20:27;;;;;;;5.78;4.20;;;23.30;99.90;;;;;;6215951;22;20011;-85
2022/08/24 09:23:39;;;;;;;6.68;3.85;;;23.40;99.90;;;;;;6313275;22;19995;-84
2022/08/24 09:26:26;;;;;;;4.57;3.70;;;23.40;99.90;;;;;;6276951;22;20480;-88
2022/08/24 09:29:10;;;;;;;8.70;4.20;;;23.40;99.90;;;;;;6286532;22;20011;-86
2022/08/24 09:31:49;;;;;;;5.20;3.55;;;23.50;99.90;;;;;;6319618;22;20015;-85
2022/08/24 09:34:24;;;;;;;8.75;3.72;;;23.60;99.90;;;;;;6291831;22;20428;-87
2022/08/24 09:37:08;;;;;;;6.38;4.28;;;23.70;99.90;;;;;;6309047;22;20448;-85
2022/08/24 09:40:01;;;;;;;6.30;3.50;;;23.70;99.90;;;;;;6309085;22;19996;-84
2022/08/24 09:43:04;;;;;;;7.18;4.35;;;23.80;99.90;;;;;;6316830;22;20015;-86
2022/08/24 09:45:54;;;;;;;6.63;3.25;;;23.90;99.90;;;;;;6319860;22;19979;-86
2022/08/24 09:48:23;;;;;;;4.22;3.38;;;23.90;99.90;;;;;;6318131;22;19999;-84
2022/08/24 09:51:15;;;;;;;6.40;4.10;;;23.90;99.90;;;;;;6319718;22;20007;-85
2022/08/24 09:54:19;;;;;;;8.95;3.28;;;23.90;99.90;;;;;;6314576;22;20077;-85
2022/08/24 09:57:12;;;;;;;7.93;3.95;;;24.00;99.90;;;;;;6309868;22;20007;-85
2022/08/24 09:59:58;;;;;;;7.13;3.40;;;24.00;99.90;;;;;;6316687;22;20031;-84
2022/08/24 10:02:57;;;;;;;8.43;4.03;;;24.10;99.90;;;;;;6317795;22;20003;-85
2022/08/24 10:05:57;;;;;;;5.40;3.10;;;24.20;99.90;;;;;;6289311;22;20026;-84
2022/08/24 10:08:38;;;;;;;6.20;3.55;;;24.10;99.90;;;;;;6316147;22;19999;-88
2022/08/24 10:11:23;;;;;;;4.70;2.85;;;24.20;99.90;;;;;;6287068;22;20004;-85
2022/08/24 10:14:05;;;;;;;4.43;3.03;;;24.30;99.90;;;;;;6308839;22;20007;-89
2022/08/24 10:16:58;;;;;;;6.32;3.63;;;24.30;99.90;;;;;;6305978;22;19996;-93
2022/08/24 10:19:59;;;;;;;5.65;3.70;;;24.20;99.90;;;;;;6289069;22;19999;-85
2022/08/24 10:22:33;;;;;;;7.57;3.47;;;24.10;99.90;;;;;;6321022;22;20043;-84
2022/08/24 10:25:18;;;;;;;8.95;3.05;;;24.20;99.90;;;;;;6308683;22;20045;-86
2022/08/24 10:28:16;;;;;;;6.50;3.70;;;24.30;99.90;;;;;;6312873;22;20033;-94
2022/08/24 10:30:56;;;;;;;8.07;5.78;;;24.50;99.90;;;;;;6285054;22;20099;-86
2022/08/24 10:33:37;;;;;;;9.65;3.70;;;24.50;99.90;;;;;;6311921;22;19999;-85
2022/08/24 10:36:09;;;;;;;6.03;3.63;;;24.60;99.90;;;;;;6291362;22;20011;-86
2022/08/24 10:42:08;;;;;;;6.45;3.70;;;24.70;99.90;;;;;;6319052;22;19995;-85
2022/08/24 10:44:36;;;;;;;6.60;3.83;;;24.70;99.90;;;;;;6315925;22;19979;-84
2022/08/24 10:47:27;;;;;;;10.00;3.45;;;24.70;99.90;;;;;;6321113;22;20015;-85
2022/08/24 10:50:22;;;;;;;7.00;3.58;;;24.80;99.90;;;;;;6318061;22;20007;-86
2022/08/24 10:53:27;;;;;;;5.00;3.30;;;24.80;99.90;;;;;;6321412;22;20011;-85
2022/08/24 10:56:14;;;;;;;4.07;2.50;;;24.90;99.90;;;;;;6318285;22;20420;-85
2022/08/24 10:58:53;;;;;;;5.88;3.50;;;24.80;99.90;;;;;;6319007;22;19999;-89
2022/08/24 11:01:35;;;;;;;3.90;2.70;;;24.80;99.90;;;;;;6308278;22;20000;-85
2022/08/24 11:04:10;;;;;;;7.63;2.83;;;24.80;99.90;;;;;;6317206;22;20007;-85
2022/08/24 11:06:42;;;;;;;3.17;2.50;;;24.90;99.90;;;;;;6290229;22;19987;-86
2022/08/24 11:09:14;;;;;;;5.15;2.45;;;25.00;99.90;;;;;;6317641;22;20013;-85
2022/08/24 11:11:43;;;;;;;6.07;2.50;;;25.20;99.90;;;;;;6291643;22;19996;-86
2022/08/24 11:14:27;;;;;;;8.20;2.30;;;25.30;99.90;;;;;;6320429;22;19984;-85
2022/08/24 11:17:22;;;;;;;3.35;1.80;;;25.30;99.90;;;;;;6315358;22;20003;-84
2022/08/24 11:19:49;;;;;;;3.22;1.90;;;25.30;99.90;;;;;;6313866;22;20435;-85
2022/08/24 11:22:39;;;;;;;2.97;1.60;;;25.10;99.90;;;;;;6320117;22;20029;-85
2022/08/24 11:25:29;;;;;;;6.13;1.50;;;25.00;99.90;;;;;;6315084;22;20003;-85
2022/08/24 11:28:37;;;;;;;2.20;1.83;;;25.10;99.90;;;;;;6313228;22;19999;-85
2022/08/24 11:31:24;;;;;;;2.00;1.50;;;25.20;99.90;;;;;;6275057;22;20432;-85
2022/08/24 11:33:59;;;;;;;1.60;1.50;;;25.30;99.90;;;;;;6315635;22;20081;-85
2022/08/24 11:36:27;;;;;;;2.63;1.50;;;25.10;99.90;;;;;;6316366;22;19984;-85
2022/08/24 11:39:41;;;;;;;4.00;1.58;;;25.10;99.90;;;;;;6314761;22;19983;-88
2022/08/24 11:42:13;;;;;;;2.95;1.38;;;25.20;99.90;;;;;;6315744;22;20022;-85
2022/08/24 11:44:44;;;;;;;4.30;1.30;;;25.30;99.90;;;;;;6312220;22;20437;-85
2022/08/24 11:47:20;;;;;;;1.52;1.20;;;25.40;99.90;;;;;;6313463;22;20003;-85
2022/08/24 11:49:54;;;;;;;3.42;1.40;;;25.30;99.90;;;;;;6292576;22;20023;-89
2022/08/24 11:52:56;;;;;;;2.97;1.40;;;25.30;99.90;;;;;;6314994;22;19995;-85
2022/08/24 11:55:52;;;;;;;3.20;1.23;;;25.40;99.90;;;;;;6247891;22;20011;-85
2022/08/24 11:58:38;;;;;;;2.90;1.80;;;25.40;99.90;;;;;;6314531;22;20003;-96
2022/08/24 12:01:16;;;;;;;1.10;1.10;;;25.50;99.90;;;;;;6314393;22;19999;-85
2022/08/24 12:04:13;;;;;;;1.20;1.10;;;25.50;99.90;;;;;;6290671;22;20273;-85
2022/08/24 12:07:17;;;;;;;1.85;1.20;;;25.50;99.90;;;;;;6323812;22;20039;-88
2022/08/24 12:10:11;;;;;;;3.22;1.00;;;25.40;99.90;;;;;;6318665;22;19991;-84
2022/08/24 12:12:45;;;;;;;1.40;1.20;;;25.50;99.90;;;;;;6315720;22;20042;-85
2022/08/24 12:15:17;;;;;;;1.58;1.00;;;25.60;99.90;;;;;;6316456;22;20459;-95
2022/08/24 12:17:57;;;;;;;2.50;1.13;;;25.70;99.90;;;;;;6313220;22;20078;-85
2022/08/24 12:20:31;;;;;;;0.98;0.93;;;25.70;99.90;;;;;;6291775;22;20007;-85
2022/08/24 12:23:02;;;;;;;3.30;0.90;;;25.80;99.90;;;;;;6310796;22;20011;-85
2022/08/24 12:28:28;;;;;;;1.85;0.98;;;25.80;99.90;;;;;;6313775;22;20014;-85
2022/08/24 12:31:02;;;;;;;1.42;1.00;;;25.80;99.90;;;;;;6292854;22;20355;-86
2022/08/24 12:33:35;;;;;;;2.85;1.02;;;25.40;99.90;;;;;;6316816;22;19984;-85
2022/08/24 12:36:22;;;;;;;1.23;0.90;;;25.40;99.90;;;;;;6285604;22;20007;-85
2022/08/24 12:39:00;;;;;;;3.15;0.95;;;25.30;99.90;;;;;;6317669;22;20000;-85
2022/08/24 12:41:33;;;;;;;1.45;0.95;;;25.40;99.90;;;;;;6316946;22;20088;-85
2022/08/24 12:44:13;;;;;;;3.53;1.02;;;25.50;99.90;;;;;;6284746;22;20009;-85
2022/08/24 12:46:50;;;;;;;2.15;0.90;;;25.60;99.90;;;;;;6319954;22;20051;-86
2022/08/24 12:49:41;;;;;;;1.23;1.10;;;25.80;99.90;;;;;;6307167;22;20011;-85
2022/08/24 12:52:26;;;;;;;1.77;1.00;;;25.90;99.90;;;;;;6311686;22;20510;-85
2022/08/24 12:55:20;;;;;;;1.60;1.00;;;26.10;99.90;;;;;;6310115;22;20447;-85
2022/08/24 12:57:52;;;;;;;2.25;1.10;;;26.10;99.90;;;;;;6307048;22;19999;-85
2022/08/24 13:00:23;;;;;;;1.67;1.13;;;26.10;99.90;;;;;;6282074;22;20352;-86
2022/08/24 13:03:01;;;;;;;2.10;1.00;;;26.20;99.90;;;;;;6312406;22;19987;-85
2022/08/24 13:05:42;;;;;;;1.20;1.10;;;26.10;99.90;;;;;;6304880;22;20008;-85
2022/08/24 13:08:31;;;;;;;1.70;1.10;;;26.10;99.90;;;;;;6282765;22;20416;-85
2022/08/24 13:11:06;;;;;;;5.07;1.20;;;26.00;99.90;;;;;;6276937;22;20102;-85
2022/08/24 13:14:06;;;;;;;4.03;1.17;;;26.00;99.90;;;;;;6279532;22;20018;-85
2022/08/24 13:16:46;;;;;;;1.15;1.00;;;26.00;99.90;;;;;;6303330;22;20003;-86
2022/08/24 13:19:31;;;;;;;1.10;1.00;;;26.00;99.90;;;;;;6317727;22;20014;-86
2022/08/24 13:22:09;;;;;;;2.90;1.27;;;26.20;99.90;;;;;;6315670;22;19988;-86
2022/08/24 13:24:34;;;;;;;2.15;1.05;;;26.30;99.90;;;;;;6318495;22;20003;-84
2022/08/24 13:27:12;;;;;;;1.35;1.10;;;26.40;99.90;;;;;;6310108;22;20520;-86
2022/08/24 13:29:47;;;;;;;1.60;1.02;;;26.40;99.90;;;;;;6303701;22;20003;-85